Time;durP1;ratioP1;P1;durP2;ratioP2;P2;SDS_P1;SDS_P2;PMS_P1;PMS_P2;Temp;Humidity;BMP_temperature;BMP_pressure;BME280_temperature;BME280_humidity;BME280_pressure;Samples;Min_cycle;Max_cycle;Signal;HPM_P1;HPM_P2
2022/11/26 00:00:44;;;;;;;63.38;24.35;;;;;;;;;;4966527;28;20531;-62
2022/11/26 00:03:12;;;;;;;65.28;26.38;;;;;;;;;;4967657;28;20432;-63
2022/11/26 00:05:40;;;;;;;62.33;23.88;;;;;;;;;;4968214;28;20304;-63
2022/11/26 00:08:15;;;;;;;65.68;21.83;;;;;;;;;;4948279;28;20376;-62
2022/11/26 00:10:41;;;;;;;46.67;18.92;;;;;;;;;;4966942;28;20057;-62
2022/11/26 00:13:16;;;;;;;39.58;20.08;;;;;;;;;;4966289;28;20465;-62
2022/11/26 00:15:42;;;;;;;43.60;19.48;;;;;;;;;;4966216;28;20479;-62
2022/11/26 00:18:07;;;;;;;40.78;19.35;;;;;;;;;;4966818;28;20403;-62
2022/11/26 00:20:32;;;;;;;41.47;19.60;;;;;;;;;;4965603;28;20436;-65
2022/11/26 00:23:01;;;;;;;44.80;19.58;;;;;;;;;;4965950;28;20033;-63
2022/11/26 00:25:41;;;;;;;53.25;22.88;;;;;;;;;;4966180;28;20026;-62
2022/11/26 00:28:36;;;;;;;58.15;26.58;;;;;;;;;;4966313;28;20456;-62
2022/11/26 00:31:13;;;;;;;61.38;25.20;;;;;;;;;;4966882;28;20025;-62
2022/11/26 00:33:38;;;;;;;56.35;24.88;;;;;;;;;;4948132;28;20439;-62
2022/11/26 00:36:18;;;;;;;53.72;22.90;;;;;;;;;;4967238;28;20330;-62
2022/11/26 00:38:47;;;;;;;48.63;21.45;;;;;;;;;;4949831;28;20376;-61
2022/11/26 00:41:22;;;;;;;38.28;18.85;;;;;;;;;;4948824;28;20355;-63
2022/11/26 00:43:48;;;;;;;41.05;19.42;;;;;;;;;;4951329;28;20041;-63
2022/11/26 00:46:17;;;;;;;44.80;20.05;;;;;;;;;;4969859;28;20494;-62
2022/11/26 00:48:43;;;;;;;43.83;20.60;;;;;;;;;;4952008;28;20352;-63
2022/11/26 00:51:19;;;;;;;43.63;19.10;;;;;;;;;;4969391;28;20025;-64
2022/11/26 00:53:46;;;;;;;46.65;19.63;;;;;;;;;;4971666;28;20362;-63
2022/11/26 00:56:19;;;;;;;43.33;18.63;;;;;;;;;;4952614;28;20476;-62
2022/11/26 00:58:47;;;;;;;38.70;18.10;;;;;;;;;;4971613;28;20365;-62
2022/11/26 01:01:17;;;;;;;43.05;19.90;;;;;;;;;;4962560;28;20219;-63
2022/11/26 01:03:43;;;;;;;108.57;37.25;;;;;;;;;;4938767;28;20492;-63
2022/11/26 01:06:19;;;;;;;46.92;22.27;;;;;;;;;;4930708;28;20415;-63
2022/11/26 01:08:45;;;;;;;57.75;23.63;;;;;;;;;;4914353;28;20488;-63
2022/11/26 01:11:19;;;;;;;56.25;22.35;;;;;;;;;;4930941;28;20103;-62
2022/11/26 01:13:47;;;;;;;45.90;21.02;;;;;;;;;;4930436;28;20520;-63
2022/11/26 01:16:41;;;;;;;100.30;35.70;;;;;;;;;;4931627;28;20112;-63
2022/11/26 01:19:13;;;;;;;105.60;37.45;;;;;;;;;;4930360;28;20455;-61
2022/11/26 01:21:39;;;;;;;69.88;27.42;;;;;;;;;;4928916;28;20445;-62
2022/11/26 01:24:04;;;;;;;57.50;23.55;;;;;;;;;;4931086;28;20515;-62
2022/11/26 01:26:38;;;;;;;40.67;18.83;;;;;;;;;;4930244;28;20353;-62
2022/11/26 01:29:04;;;;;;;41.38;19.60;;;;;;;;;;4930896;28;20038;-62
2022/11/26 01:31:30;;;;;;;45.72;20.55;;;;;;;;;;4930015;28;20097;-63
2022/11/26 01:33:56;;;;;;;46.35;20.23;;;;;;;;;;4929718;28;20129;-62
2022/11/26 01:36:24;;;;;;;42.17;19.08;;;;;;;;;;4930156;28;20416;-61
2022/11/26 01:38:52;;;;;;;41.20;19.45;;;;;;;;;;4930355;28;20349;-62
2022/11/26 01:41:51;;;;;;;40.25;20.27;;;;;;;;;;4930267;28;20468;-62
2022/11/26 01:44:27;;;;;;;38.78;19.30;;;;;;;;;;4929928;28;20031;-63
2022/11/26 01:46:53;;;;;;;34.92;19.23;;;;;;;;;;4931734;28;20117;-62
2022/11/26 01:49:30;;;;;;;37.85;19.17;;;;;;;;;;4948672;28;20345;-62
2022/11/26 01:52:22;;;;;;;41.63;19.60;;;;;;;;;;4949621;28;20476;-65
2022/11/26 01:54:49;;;;;;;38.70;19.50;;;;;;;;;;4931795;28;20112;-62
2022/11/26 01:57:19;;;;;;;42.58;19.60;;;;;;;;;;4950666;28;20417;-62
2022/11/26 01:59:49;;;;;;;38.97;18.80;;;;;;;;;;4948904;28;20450;-62
2022/11/26 02:02:16;;;;;;;37.40;18.60;;;;;;;;;;4949135;28;20056;-63
2022/11/26 02:05:18;;;;;;;42.22;19.05;;;;;;;;;;4931093;28;20033;-62
2022/11/26 02:07:45;;;;;;;36.30;18.90;;;;;;;;;;4949645;28;20433;-62
2022/11/26 02:10:12;;;;;;;41.47;19.95;;;;;;;;;;4949757;28;20424;-62
2022/11/26 02:12:39;;;;;;;39.92;19.70;;;;;;;;;;4948781;28;20464;-63
2022/11/26 02:15:05;;;;;;;37.25;17.98;;;;;;;;;;4948860;28;20479;-62
2022/11/26 02:17:46;;;;;;;39.78;19.00;;;;;;;;;;4930678;28;20464;-62
2022/11/26 02:20:42;;;;;;;37.05;18.08;;;;;;;;;;4931356;28;20104;-63
2022/11/26 02:23:33;;;;;;;35.10;16.75;;;;;;;;;;4934296;28;20372;-64
2022/11/26 02:26:29;;;;;;;37.72;17.05;;;;;;;;;;4932646;28;20341;-62
2022/11/26 02:29:28;;;;;;;47.72;23.02;;;;;;;;;;4948399;28;20474;-62
2022/11/26 02:32:04;;;;;;;54.85;22.30;;;;;;;;;;4893815;28;20507;-63
2022/11/26 02:35:00;;;;;;;43.30;21.52;;;;;;;;;;4912231;28;20026;-63
2022/11/26 02:37:45;;;;;;;49.25;23.48;;;;;;;;;;4930655;28;20546;-61
2022/11/26 02:40:10;;;;;;;47.45;23.90;;;;;;;;;;4912413;28;20437;-62
2022/11/26 02:42:36;;;;;;;49.33;22.88;;;;;;;;;;4928776;28;20441;-62
2022/11/26 02:45:15;;;;;;;45.63;21.75;;;;;;;;;;4928747;28;20437;-61
2022/11/26 02:47:44;;;;;;;42.67;21.95;;;;;;;;;;4928394;28;20431;-62
2022/11/26 02:50:23;;;;;;;43.80;20.65;;;;;;;;;;4912084;28;20030;-63
2022/11/26 02:52:51;;;;;;;41.20;19.93;;;;;;;;;;4911990;28;20479;-62
2022/11/26 02:55:22;;;;;;;37.92;19.80;;;;;;;;;;4911900;28;20038;-62
2022/11/26 02:57:50;;;;;;;39.72;19.83;;;;;;;;;;4911598;28;20464;-62
2022/11/26 03:00:17;;;;;;;36.85;20.02;;;;;;;;;;4911147;28;20537;-62
2022/11/26 03:03:21;;;;;;;42.42;19.50;;;;;;;;;;4927895;28;20027;-62
2022/11/26 03:05:49;;;;;;;43.25;20.48;;;;;;;;;;4912619;28;20352;-62
2022/11/26 03:08:15;;;;;;;43.83;19.83;;;;;;;;;;4928797;28;20535;-62
2022/11/26 03:10:40;;;;;;;39.88;19.08;;;;;;;;;;4911524;28;20039;-63
2022/11/26 03:13:06;;;;;;;38.22;19.83;;;;;;;;;;4928523;28;20473;-62
2022/11/26 03:15:31;;;;;;;42.03;20.60;;;;;;;;;;4927917;28;20030;-62
2022/11/26 03:17:57;;;;;;;39.47;20.60;;;;;;;;;;4928121;28;20453;-62
2022/11/26 03:20:23;;;;;;;40.08;20.00;;;;;;;;;;4928908;28;20421;-62
2022/11/26 03:22:48;;;;;;;39.72;20.23;;;;;;;;;;4928347;28;20034;-62
2022/11/26 03:25:14;;;;;;;34.17;19.08;;;;;;;;;;4928750;28;20500;-62
2022/11/26 03:27:39;;;;;;;36.70;19.50;;;;;;;;;;4928021;28;20341;-62
2022/11/26 03:30:06;;;;;;;38.53;18.65;;;;;;;;;;4927750;28;20468;-63
2022/11/26 03:32:31;;;;;;;40.22;20.60;;;;;;;;;;4910668;28;20368;-63
2022/11/26 03:34:57;;;;;;;37.55;18.77;;;;;;;;;;4928928;28;20400;-61
2022/11/26 03:37:22;;;;;;;39.10;19.27;;;;;;;;;;4929543;28;20369;-63
2022/11/26 03:39:48;;;;;;;37.78;20.10;;;;;;;;;;4928130;28;20372;-63
2022/11/26 03:42:13;;;;;;;41.17;20.63;;;;;;;;;;4928114;28;20472;-62
2022/11/26 03:44:39;;;;;;;41.50;20.65;;;;;;;;;;4927638;28;20353;-63
2022/11/26 03:47:04;;;;;;;42.13;21.55;;;;;;;;;;4927568;28;20030;-62
2022/11/26 03:49:30;;;;;;;40.90;20.08;;;;;;;;;;4928393;28;20034;-62
2022/11/26 03:51:55;;;;;;;39.65;19.20;;;;;;;;;;4928338;28;20438;-62
2022/11/26 03:54:21;;;;;;;41.70;18.33;;;;;;;;;;4927858;28;20337;-62
2022/11/26 03:56:46;;;;;;;37.70;18.30;;;;;;;;;;4927619;28;20345;-61
2022/11/26 03:59:12;;;;;;;40.97;20.25;;;;;;;;;;4927536;28;20457;-62
2022/11/26 04:01:37;;;;;;;39.60;19.52;;;;;;;;;;4927160;28;20034;-62
2022/11/26 04:04:03;;;;;;;42.20;20.50;;;;;;;;;;4928283;28;20031;-62
2022/11/26 04:06:28;;;;;;;37.67;18.27;;;;;;;;;;4928661;28;20456;-62
2022/11/26 04:08:54;;;;;;;38.88;19.17;;;;;;;;;;4927680;28;20508;-62
2022/11/26 04:11:19;;;;;;;40.33;19.85;;;;;;;;;;4927620;28;20042;-62
2022/11/26 04:13:45;;;;;;;42.17;21.10;;;;;;;;;;4927871;28;20109;-62
2022/11/26 04:16:10;;;;;;;36.75;18.38;;;;;;;;;;4927048;28;20487;-62
2022/11/26 04:18:36;;;;;;;36.50;19.00;;;;;;;;;;4928191;28;20353;-62
2022/11/26 04:21:03;;;;;;;34.90;18.70;;;;;;;;;;4927640;28;20042;-62
2022/11/26 04:23:29;;;;;;;36.00;18.77;;;;;;;;;;4927484;28;20319;-62
2022/11/26 04:25:54;;;;;;;37.85;18.95;;;;;;;;;;4927366;28;20400;-63
2022/11/26 04:28:20;;;;;;;38.72;19.25;;;;;;;;;;4927004;28;20349;-62
2022/11/26 04:30:45;;;;;;;36.22;18.98;;;;;;;;;;4927186;28;20456;-62
2022/11/26 04:33:11;;;;;;;39.70;19.05;;;;;;;;;;4927724;28;20035;-62
2022/11/26 04:35:37;;;;;;;37.58;19.65;;;;;;;;;;4927522;28;20357;-63
2022/11/26 04:38:03;;;;;;;41.30;20.45;;;;;;;;;;4927256;28;20457;-62
2022/11/26 04:40:28;;;;;;;41.67;20.48;;;;;;;;;;4928407;28;20062;-62
2022/11/26 04:42:54;;;;;;;36.00;18.23;;;;;;;;;;4927025;28;20481;-61
2022/11/26 04:45:19;;;;;;;39.40;19.70;;;;;;;;;;4927658;28;20433;-62
2022/11/26 04:47:45;;;;;;;39.97;19.85;;;;;;;;;;4927545;28;20053;-63
2022/11/26 04:50:11;;;;;;;36.58;20.13;;;;;;;;;;4927545;28;20608;-62
2022/11/26 04:52:36;;;;;;;40.33;19.77;;;;;;;;;;4927228;28;20362;-62
2022/11/26 04:55:02;;;;;;;36.33;19.17;;;;;;;;;;4927179;28;20468;-62
2022/11/26 04:57:28;;;;;;;36.33;17.85;;;;;;;;;;4926960;28;20031;-62
2022/11/26 04:59:53;;;;;;;38.60;20.00;;;;;;;;;;4926712;28;20461;-62
2022/11/26 05:02:19;;;;;;;36.88;17.83;;;;;;;;;;4927640;28;20369;-62
2022/11/26 05:04:44;;;;;;;34.78;18.77;;;;;;;;;;4927505;28;20481;-63
2022/11/26 05:07:10;;;;;;;36.65;17.92;;;;;;;;;;4928197;28;20417;-62
2022/11/26 05:09:35;;;;;;;33.28;17.42;;;;;;;;;;4926878;28;20392;-62
2022/11/26 05:12:01;;;;;;;35.92;16.83;;;;;;;;;;4927467;28;20473;-63
2022/11/26 05:14:26;;;;;;;32.55;16.23;;;;;;;;;;4926062;28;20346;-62
2022/11/26 05:16:51;;;;;;;27.63;16.85;;;;;;;;;;4927491;28;20026;-63
2022/11/26 05:19:17;;;;;;;32.42;16.38;;;;;;;;;;4927245;28;20065;-62
2022/11/26 05:21:42;;;;;;;32.58;16.90;;;;;;;;;;4926744;28;20085;-62
2022/11/26 05:24:08;;;;;;;27.77;15.57;;;;;;;;;;4926966;28;20453;-63
2022/11/26 05:26:33;;;;;;;31.50;15.70;;;;;;;;;;4926635;28;20096;-63
2022/11/26 05:28:59;;;;;;;24.88;14.50;;;;;;;;;;4926573;28;20030;-62
2022/11/26 05:31:25;;;;;;;25.10;13.60;;;;;;;;;;4930958;28;20042;-62
2022/11/26 05:33:50;;;;;;;26.05;14.68;;;;;;;;;;4931921;28;20429;-63
2022/11/26 05:36:16;;;;;;;25.73;13.90;;;;;;;;;;4931338;28;20603;-62
2022/11/26 05:38:41;;;;;;;27.95;14.95;;;;;;;;;;4929921;28;20506;-62
2022/11/26 05:41:07;;;;;;;24.23;12.98;;;;;;;;;;4930377;28;20014;-62
2022/11/26 05:43:32;;;;;;;27.70;13.90;;;;;;;;;;4931138;28;20100;-61
2022/11/26 05:46:06;;;;;;;27.63;14.45;;;;;;;;;;4930641;28;20057;-63
2022/11/26 05:48:32;;;;;;;25.45;13.25;;;;;;;;;;4930208;28;20473;-62
2022/11/26 05:51:01;;;;;;;28.67;14.60;;;;;;;;;;4930287;28;20417;-63
2022/11/26 05:53:27;;;;;;;27.48;13.65;;;;;;;;;;4929752;28;20460;-62
2022/11/26 05:55:53;;;;;;;23.42;13.30;;;;;;;;;;4930066;28;20453;-62
2022/11/26 05:58:18;;;;;;;27.77;14.18;;;;;;;;;;4929601;28;20515;-62
2022/11/26 06:00:44;;;;;;;23.73;12.82;;;;;;;;;;4930138;28;20516;-63
2022/11/26 06:03:10;;;;;;;24.45;13.27;;;;;;;;;;4930197;28;20432;-63
2022/11/26 06:05:35;;;;;;;24.08;13.95;;;;;;;;;;4929725;28;20031;-62
2022/11/26 06:08:01;;;;;;;26.88;14.88;;;;;;;;;;4929638;28;20552;-62
2022/11/26 06:10:26;;;;;;;26.75;13.98;;;;;;;;;;4929235;28;20437;-64
2022/11/26 06:12:52;;;;;;;22.42;12.88;;;;;;;;;;4929057;28;20441;-62
2022/11/26 06:15:17;;;;;;;22.90;13.48;;;;;;;;;;4930010;28;20045;-64
2022/11/26 06:17:43;;;;;;;29.15;15.23;;;;;;;;;;4929543;28;20507;-63
2022/11/26 06:20:09;;;;;;;27.70;13.82;;;;;;;;;;4812719;28;20597;-63
2022/11/26 06:22:40;;;;;;;29.95;14.75;;;;;;;;;;4926611;28;20136;-62
2022/11/26 06:25:09;;;;;;;23.67;12.68;;;;;;;;;;4929000;28;20061;-62
2022/11/26 06:27:35;;;;;;;26.42;14.68;;;;;;;;;;4880329;28;20526;-63
2022/11/26 06:30:03;;;;;;;42.42;21.65;;;;;;;;;;4929720;28;20357;-62
2022/11/26 06:32:30;;;;;;;35.13;19.37;;;;;;;;;;4929199;28;20596;-63
2022/11/26 06:34:56;;;;;;;31.33;18.88;;;;;;;;;;4872138;28;20488;-62
2022/11/26 06:37:22;;;;;;;26.58;14.25;;;;;;;;;;4929326;28;20463;-62
2022/11/26 06:39:47;;;;;;;21.13;12.68;;;;;;;;;;4929325;28;20450;-63
2022/11/26 06:42:13;;;;;;;23.27;12.93;;;;;;;;;;4928739;28;20022;-62
2022/11/26 06:44:38;;;;;;;22.52;12.75;;;;;;;;;;4929691;28;20046;-64
2022/11/26 06:47:04;;;;;;;23.00;11.80;;;;;;;;;;4929045;28;20022;-62
2022/11/26 06:49:29;;;;;;;21.50;12.23;;;;;;;;;;4928755;28;20421;-62
2022/11/26 06:51:55;;;;;;;21.27;12.13;;;;;;;;;;4930140;28;20364;-62
2022/11/26 06:54:20;;;;;;;24.08;14.02;;;;;;;;;;4928473;28;20345;-63
2022/11/26 06:56:46;;;;;;;26.75;14.30;;;;;;;;;;4928639;28;20026;-61
2022/11/26 06:59:12;;;;;;;27.17;15.27;;;;;;;;;;4929337;28;20026;-62
2022/11/26 07:01:37;;;;;;;30.67;16.25;;;;;;;;;;4929439;28;20496;-63
2022/11/26 07:04:03;;;;;;;26.25;15.05;;;;;;;;;;4928582;28;20393;-62
2022/11/26 07:06:31;;;;;;;33.45;18.42;;;;;;;;;;4928365;28;20081;-62
2022/11/26 07:09:03;;;;;;;28.58;15.80;;;;;;;;;;4928989;28;20400;-63
2022/11/26 07:11:29;;;;;;;28.17;14.25;;;;;;;;;;4929014;28;20022;-61
2022/11/26 07:13:55;;;;;;;29.95;13.65;;;;;;;;;;4928247;28;20069;-62
2022/11/26 07:16:21;;;;;;;29.02;13.38;;;;;;;;;;4911415;28;20056;-64
2022/11/26 07:18:52;;;;;;;21.73;12.25;;;;;;;;;;4928259;28;20414;-62
2022/11/26 07:21:19;;;;;;;26.13;14.48;;;;;;;;;;4928023;28;20449;-62
2022/11/26 07:23:45;;;;;;;43.72;23.33;;;;;;;;;;4928057;28;20461;-62
2022/11/26 07:26:13;;;;;;;27.30;14.38;;;;;;;;;;4929666;28;20096;-62
2022/11/26 07:28:39;;;;;;;28.15;15.00;;;;;;;;;;4928359;28;20377;-62
2022/11/26 07:31:17;;;;;;;25.63;13.80;;;;;;;;;;4928379;28;20341;-62
2022/11/26 07:33:44;;;;;;;29.48;16.25;;;;;;;;;;4928191;28;20500;-63
2022/11/26 07:36:25;;;;;;;29.60;16.23;;;;;;;;;;4927813;28;20365;-62
2022/11/26 07:38:54;;;;;;;29.67;15.80;;;;;;;;;;4927305;28;20066;-64
2022/11/26 07:41:20;;;;;;;28.60;13.38;;;;;;;;;;4928263;28;20352;-64
2022/11/26 07:43:46;;;;;;;25.45;14.00;;;;;;;;;;4927823;28;20345;-63
2022/11/26 07:46:15;;;;;;;26.10;14.73;;;;;;;;;;4928436;28;20047;-62
2022/11/26 07:48:41;;;;;;;27.05;14.48;;;;;;;;;;4927947;28;20622;-62
2022/11/26 07:51:14;;;;;;;22.52;12.93;;;;;;;;;;4928802;28;20373;-62
2022/11/26 07:53:40;;;;;;;27.10;15.18;;;;;;;;;;4909900;28;20031;-62
2022/11/26 07:56:06;;;;;;;25.20;14.15;;;;;;;;;;4927373;28;20030;-63
2022/11/26 07:58:32;;;;;;;24.70;12.68;;;;;;;;;;4927880;28;20422;-62
2022/11/26 08:01:10;;;;;;;22.70;12.73;;;;;;;;;;4927641;28;20279;-64
2022/11/26 08:03:38;;;;;;;27.17;14.18;;;;;;;;;;4927544;28;20433;-62
2022/11/26 08:06:10;;;;;;;26.95;14.02;;;;;;;;;;4927416;28;20092;-61
2022/11/26 08:08:36;;;;;;;29.85;13.70;;;;;;;;;;4928356;28;20401;-62
2022/11/26 08:11:03;;;;;;;22.40;13.27;;;;;;;;;;4927276;28;20409;-62
2022/11/26 08:13:29;;;;;;;28.52;15.20;;;;;;;;;;4927232;28;20128;-63
2022/11/26 08:15:54;;;;;;;35.78;20.38;;;;;;;;;;4927553;28;20030;-63
2022/11/26 08:18:19;;;;;;;28.00;15.75;;;;;;;;;;4877318;28;20445;-62
2022/11/26 08:20:54;;;;;;;33.55;17.42;;;;;;;;;;4927405;28;20097;-62
2022/11/26 08:23:20;;;;;;;34.97;16.30;;;;;;;;;;4927007;28;20042;-64
2022/11/26 08:25:45;;;;;;;40.55;19.80;;;;;;;;;;4926987;28;20433;-64
2022/11/26 08:28:11;;;;;;;28.02;15.57;;;;;;;;;;4928713;28;20404;-61
2022/11/26 08:30:36;;;;;;;24.33;13.98;;;;;;;;;;4927374;28;20365;-63
2022/11/26 08:33:02;;;;;;;29.27;15.30;;;;;;;;;;4927411;28;20434;-62
2022/11/26 08:35:27;;;;;;;29.23;16.48;;;;;;;;;;4926723;28;20349;-63
2022/11/26 08:37:52;;;;;;;30.10;17.55;;;;;;;;;;4927975;28;20333;-62
2022/11/26 08:40:18;;;;;;;26.73;14.80;;;;;;;;;;4926879;28;20404;-61
2022/11/26 08:42:43;;;;;;;27.52;15.40;;;;;;;;;;4928718;28;20396;-62
2022/11/26 08:45:10;;;;;;;34.22;18.38;;;;;;;;;;4910354;28;20435;-62
2022/11/26 08:47:35;;;;;;;41.75;22.65;;;;;;;;;;4927084;28;20349;-63
2022/11/26 08:50:00;;;;;;;38.72;19.58;;;;;;;;;;4926909;28;20026;-62
2022/11/26 08:52:26;;;;;;;47.00;27.40;;;;;;;;;;4927446;28;20464;-62
2022/11/26 08:54:51;;;;;;;62.15;34.15;;;;;;;;;;4926698;28;20370;-63
2022/11/26 08:57:17;;;;;;;48.33;26.98;;;;;;;;;;4927555;28;20496;-62
2022/11/26 08:59:43;;;;;;;46.97;21.77;;;;;;;;;;4927569;28;20484;-62
2022/11/26 09:02:10;;;;;;;46.53;22.52;;;;;;;;;;4926819;28;20441;-63
2022/11/26 09:04:36;;;;;;;59.30;26.30;;;;;;;;;;4928868;28;20556;-62
2022/11/26 09:07:01;;;;;;;49.17;25.15;;;;;;;;;;4930328;28;20437;-62
2022/11/26 09:09:27;;;;;;;50.53;26.30;;;;;;;;;;4930356;28;20108;-62
2022/11/26 09:11:59;;;;;;;49.40;25.40;;;;;;;;;;4913370;28;20092;-63
2022/11/26 09:14:28;;;;;;;44.88;21.88;;;;;;;;;;4929932;28;20365;-63
2022/11/26 09:16:55;;;;;;;43.13;20.35;;;;;;;;;;4930560;28;20429;-62
2022/11/26 09:19:21;;;;;;;46.33;22.90;;;;;;;;;;4930320;28;20496;-62
2022/11/26 09:21:47;;;;;;;50.45;24.05;;;;;;;;;;4929946;28;20361;-63
2022/11/26 09:24:13;;;;;;;41.92;21.85;;;;;;;;;;4929973;28;20484;-62
2022/11/26 09:26:39;;;;;;;45.30;19.75;;;;;;;;;;4931209;28;20417;-61
2022/11/26 09:29:05;;;;;;;49.65;22.27;;;;;;;;;;4931052;28;20325;-62
2022/11/26 09:31:31;;;;;;;40.63;21.05;;;;;;;;;;4931082;28;20049;-62
2022/11/26 09:33:59;;;;;;;68.68;29.55;;;;;;;;;;4929920;28;20432;-62
2022/11/26 09:36:25;;;;;;;99.22;39.22;;;;;;;;;;4931842;28;20061;-63
2022/11/26 09:38:55;;;;;;;120.72;45.05;;;;;;;;;;4929739;28;20524;-63
2022/11/26 09:41:59;;;;;;;121.03;42.67;;;;;;;;;;4930508;28;20061;-62
2022/11/26 09:44:54;;;;;;;52.70;24.52;;;;;;;;;;4930430;28;20065;-65
2022/11/26 09:47:27;;;;;;;53.85;25.13;;;;;;;;;;4929753;28;20456;-62
2022/11/26 09:50:05;;;;;;;60.75;30.05;;;;;;;;;;4929663;28;20416;-62
2022/11/26 09:52:45;;;;;;;71.15;31.10;;;;;;;;;;4873894;28;20404;-63
2022/11/26 09:55:34;;;;;;;65.43;28.35;;;;;;;;;;4878207;28;20389;-62
2022/11/26 09:58:23;;;;;;;82.95;39.30;;;;;;;;;;4836716;28;20441;-63
2022/11/26 10:00:52;;;;;;;63.33;30.45;;;;;;;;;;4928587;28;20519;-62
2022/11/26 10:03:22;;;;;;;63.03;33.13;;;;;;;;;;4878593;28;20472;-62
2022/11/26 10:05:55;;;;;;;62.17;30.45;;;;;;;;;;4929426;28;20058;-62
2022/11/26 10:08:45;;;;;;;63.60;30.48;;;;;;;;;;4911788;28;20418;-62
2022/11/26 10:11:34;;;;;;;46.58;24.17;;;;;;;;;;4930013;28;20030;-63
2022/11/26 10:14:20;;;;;;;49.25;25.02;;;;;;;;;;4929067;28;20105;-63
2022/11/26 10:16:51;;;;;;;47.08;22.88;;;;;;;;;;4928808;28;20466;-62
2022/11/26 10:19:41;;;;;;;46.22;22.10;;;;;;;;;;4928952;28;20471;-65
2022/11/26 10:22:23;;;;;;;42.80;22.00;;;;;;;;;;4913285;28;20520;-63
2022/11/26 10:24:50;;;;;;;41.13;20.48;;;;;;;;;;4912632;28;20350;-64
2022/11/26 10:27:19;;;;;;;43.88;20.48;;;;;;;;;;4929308;28;20418;-63
2022/11/26 10:29:58;;;;;;;;;;;;;;;;;;4930515;28;20034;-63
2022/11/26 10:32:38;;;;;;;48.40;22.00;;;;;;;;;;4911913;28;20336;-63
2022/11/26 10:35:04;;;;;;;40.22;19.35;;;;;;;;;;4912905;28;20313;-64
2022/11/26 10:37:30;;;;;;;64.20;26.23;;;;;;;;;;4928576;28;20034;-62
2022/11/26 10:40:22;;;;;;;81.72;32.78;;;;;;;;;;4929495;28;20476;-63
2022/11/26 10:43:20;;;;;;;104.22;41.75;;;;;;;;;;4929188;28;20504;-63
2022/11/26 10:45:54;;;;;;;59.40;25.48;;;;;;;;;;4908699;28;20338;-62
2022/11/26 10:48:32;;;;;;;57.72;27.23;;;;;;;;;;4928568;28;20453;-63
2022/11/26 10:51:15;;;;;;;46.45;24.23;;;;;;;;;;4928544;28;20430;-63
2022/11/26 10:54:04;;;;;;;45.92;23.15;;;;;;;;;;4929963;28;20528;-62
2022/11/26 10:56:42;;;;;;;76.88;35.13;;;;;;;;;;4929169;28;20467;-64
2022/11/26 10:59:27;;;;;;;54.45;27.15;;;;;;;;;;4928622;28;20437;-62
2022/11/26 11:01:54;;;;;;;41.28;23.30;;;;;;;;;;4911998;28;20541;-62
2022/11/26 11:04:26;;;;;;;43.20;23.35;;;;;;;;;;4928356;28;20544;-63
2022/11/26 11:06:52;;;;;;;45.63;22.40;;;;;;;;;;4928088;28;20034;-62
2022/11/26 11:09:30;;;;;;;38.80;20.38;;;;;;;;;;4911493;28;20077;-62
2022/11/26 11:12:19;;;;;;;41.67;20.77;;;;;;;;;;4928385;28;20342;-64
2022/11/26 11:14:46;;;;;;;40.50;21.30;;;;;;;;;;4928265;28;20149;-62
2022/11/26 11:17:30;;;;;;;66.40;26.42;;;;;;;;;;4928044;28;20481;-63
2022/11/26 11:20:21;;;;;;;54.78;23.88;;;;;;;;;;4928808;28;20370;-63
2022/11/26 11:22:55;;;;;;;62.63;28.33;;;;;;;;;;4928469;28;20093;-63
2022/11/26 11:25:25;;;;;;;49.80;24.48;;;;;;;;;;4878574;28;20487;-63
2022/11/26 11:27:52;;;;;;;;;;;;;;;;;;4911217;28;20140;-62
2022/11/26 11:30:28;;;;;;;49.50;23.40;;;;;;;;;;4911361;28;20328;-62
2022/11/26 11:32:56;;;;;;;64.22;27.48;;;;;;;;;;4911776;28;20532;-63
2022/11/26 11:35:29;;;;;;;73.50;35.67;;;;;;;;;;4927645;28;20504;-63
2022/11/26 11:37:56;;;;;;;65.65;32.42;;;;;;;;;;4928726;28;20034;-63
2022/11/26 11:40:27;;;;;;;63.40;30.30;;;;;;;;;;4928346;28;20491;-62
2022/11/26 11:43:03;;;;;;;75.32;34.20;;;;;;;;;;4910579;28;20539;-64
2022/11/26 11:45:39;;;;;;;66.53;29.65;;;;;;;;;;4910409;28;20409;-64
2022/11/26 11:48:17;;;;;;;103.43;42.92;;;;;;;;;;4911053;28;20445;-63
2022/11/26 11:51:07;;;;;;;71.85;32.92;;;;;;;;;;4928170;28;20474;-62
2022/11/26 11:53:43;;;;;;;77.68;30.67;;;;;;;;;;4912465;28;20495;-62
2022/11/26 11:56:27;;;;;;;55.60;28.10;;;;;;;;;;4911305;28;20459;-62
2022/11/26 12:00:12;;;;;;;76.88;34.83;;;;;;;;;;4928506;28;20353;-63
2022/11/26 12:03:07;;;;;;;59.60;28.13;;;;;;;;;;4885834;29;20031;-62
2022/11/26 12:06:16;;;;;;;68.20;31.25;;;;;;;;;;4886263;29;20417;-64
2022/11/26 12:09:20;;;;;;;60.45;27.65;;;;;;;;;;4927822;28;20388;-62
2022/11/26 12:12:24;;;;;;;48.38;24.77;;;;;;;;;;4927446;28;20026;-62
2022/11/26 12:14:54;;;;;;;52.70;25.90;;;;;;;;;;4928162;28;20437;-63
2022/11/26 12:17:34;;;;;;;54.97;26.10;;;;;;;;;;4926898;28;20460;-62
2022/11/26 12:20:43;;;;;;;51.70;26.95;;;;;;;;;;4927382;28;20449;-63
2022/11/26 12:23:27;;;;;;;;;;;;;;;;;;4927208;28;20384;-63
2022/11/26 12:26:49;;;;;;;70.85;27.70;;;;;;;;;;4929228;28;20251;-62
2022/11/26 12:29:26;;;;;;;57.35;25.17;;;;;;;;;;4926963;28;20453;-63
2022/11/26 12:32:10;;;;;;;57.60;27.27;;;;;;;;;;4927011;28;20400;-65
2022/11/26 12:34:45;;;;;;;58.50;25.83;;;;;;;;;;4928851;28;20372;-64
2022/11/26 12:37:29;;;;;;;63.15;30.58;;;;;;;;;;4910503;28;20420;-63
2022/11/26 12:40:17;;;;;;;67.40;31.48;;;;;;;;;;4930633;28;20459;-62
2022/11/26 12:43:01;;;;;;;61.85;29.92;;;;;;;;;;4930021;28;20457;-63
2022/11/26 12:46:00;;;;;;;90.45;40.85;;;;;;;;;;4930635;28;20381;-62
2022/11/26 12:48:50;;;;;;;64.13;31.88;;;;;;;;;;4933231;28;20441;-62
2022/11/26 12:51:37;;;;;;;64.80;29.38;;;;;;;;;;4913288;28;20369;-68
2022/11/26 12:54:22;;;;;;;56.95;28.10;;;;;;;;;;4931657;28;20543;-62
2022/11/26 12:57:14;;;;;;;57.47;29.60;;;;;;;;;;4930401;28;20396;-63
2022/11/26 12:59:58;;;;;;;65.72;27.85;;;;;;;;;;4930420;28;20345;-62
2022/11/26 13:02:29;;;;;;;61.53;28.63;;;;;;;;;;4931017;28;20396;-64
2022/11/26 13:04:57;;;;;;;63.90;27.35;;;;;;;;;;4932463;28;20516;-63
2022/11/26 13:08:08;;;;;;;57.93;28.30;;;;;;;;;;4913543;28;20458;-64
2022/11/26 13:11:03;;;;;;;51.50;26.35;;;;;;;;;;4931199;28;20281;-63
2022/11/26 13:13:49;;;;;;;46.17;21.95;;;;;;;;;;4929790;28;20444;-63
2022/11/26 13:16:33;;;;;;;41.17;19.85;;;;;;;;;;4932536;28;20446;-65
2022/11/26 13:19:05;;;;;;;39.78;21.15;;;;;;;;;;4931262;28;20435;-62
2022/11/26 13:21:45;;;;;;;53.55;24.77;;;;;;;;;;4913319;28;20026;-63
2022/11/26 13:24:32;;;;;;;55.35;26.38;;;;;;;;;;4913960;28;20482;-62
2022/11/26 13:27:00;;;;;;;38.63;19.35;;;;;;;;;;4931190;28;20445;-62
2022/11/26 13:29:59;;;;;;;36.50;18.75;;;;;;;;;;4930941;28;20522;-62
2022/11/26 13:32:50;;;;;;;;;;;;;;;;;;4915147;28;20477;-64
2022/11/26 13:35:36;;;;;;;26.55;14.73;;;;;;;;;;4916183;28;20347;-63
2022/11/26 13:38:20;;;;;;;25.77;14.35;;;;;;;;;;4912564;28;20422;-63
2022/11/26 13:41:07;;;;;;;27.48;14.20;;;;;;;;;;4913206;28;20120;-63
2022/11/26 13:44:16;;;;;;;21.50;12.60;;;;;;;;;;4929632;28;20503;-63
2022/11/26 13:47:03;;;;;;;23.65;12.93;;;;;;;;;;4930037;28;20412;-63
2022/11/26 13:49:58;;;;;;;17.98;10.70;;;;;;;;;;4929981;28;20471;-62
2022/11/26 13:52:43;;;;;;;20.25;10.10;;;;;;;;;;4929882;28;20030;-62
2022/11/26 13:55:29;;;;;;;19.50;11.15;;;;;;;;;;4929546;28;20440;-63
2022/11/26 13:58:00;;;;;;;20.98;12.38;;;;;;;;;;4929472;28;20042;-62
2022/11/26 14:00:31;;;;;;;21.50;11.88;;;;;;;;;;4929516;28;20053;-62
2022/11/26 14:02:59;;;;;;;17.45;9.65;;;;;;;;;;4930232;28;20516;-62
2022/11/26 14:05:57;;;;;;;34.50;14.23;;;;;;;;;;4931578;28;20053;-62
2022/11/26 14:08:35;;;;;;;46.30;16.73;;;;;;;;;;4929428;28;20461;-64
2022/11/26 14:11:01;;;;;;;32.30;14.52;;;;;;;;;;4929593;28;21079;-62
2022/11/26 14:13:26;;;;;;;36.67;16.52;;;;;;;;;;4928812;28;20504;-62
2022/11/26 14:16:03;;;;;;;47.55;19.67;;;;;;;;;;4930192;28;20018;-63
2022/11/26 14:18:47;;;;;;;38.05;17.23;;;;;;;;;;4931544;28;20057;-63
2022/11/26 14:21:13;;;;;;;52.20;23.38;;;;;;;;;;4930496;28;20068;-63
2022/11/26 14:23:47;;;;;;;39.47;19.95;;;;;;;;;;4929503;28;20104;-62
2022/11/26 14:26:37;;;;;;;21.83;11.35;;;;;;;;;;4929060;28;20360;-62
2022/11/26 14:29:06;;;;;;;31.65;15.65;;;;;;;;;;4929971;28;20112;-62
2022/11/26 14:31:32;;;;;;;50.20;21.85;;;;;;;;;;4929040;28;20349;-63
2022/11/26 14:34:41;;;;;;;32.78;15.68;;;;;;;;;;4912067;28;20034;-63
2022/11/26 14:37:14;;;;;;;;;;;;;;;;;;4929911;28;20430;-63
2022/11/26 14:39:39;;;;;;;19.25;9.65;;;;;;;;;;4911839;28;19992;-62
2022/11/26 14:42:05;;;;;;;19.02;10.45;;;;;;;;;;4928799;28;20050;-63
2022/11/26 14:44:31;;;;;;;21.98;10.85;;;;;;;;;;4928708;28;20022;-63
2022/11/26 14:47:10;;;;;;;23.50;11.48;;;;;;;;;;4911741;28;20553;-62
2022/11/26 14:49:41;;;;;;;17.90;9.98;;;;;;;;;;4929333;28;20472;-62
2022/11/26 14:52:42;;;;;;;19.25;10.57;;;;;;;;;;4928774;28;20192;-63